createdAt,value
2018-03-20T00:00:50.977Z,1007.06
2018-03-20T00:02:44.400Z,1007.08
2018-03-20T00:03:44.216Z,1007.08
2018-03-20T00:05:37.509Z,1007.07
2018-03-20T00:06:37.460Z,1007.05
2018-03-20T00:08:30.783Z,1007.07
2018-03-20T00:09:30.714Z,1007.05
2018-03-20T00:11:24.075Z,1007.05
2018-03-20T00:12:24.038Z,1007.05
2018-03-20T00:14:17.472Z,1007.09
2018-03-20T00:15:17.400Z,1007.12
2018-03-20T00:17:10.704Z,1007.11
2018-03-20T00:18:10.665Z,1007.12
2018-03-20T00:20:03.971Z,1007.10
2018-03-20T00:21:03.899Z,1007.14
2018-03-20T00:22:57.193Z,1007.14
2018-03-20T00:23:57.148Z,1007.15
2018-03-20T00:25:50.459Z,1007.13
2018-03-20T00:26:50.400Z,1007.12
2018-03-20T00:28:43.722Z,1007.12
2018-03-20T00:29:43.652Z,1007.13
2018-03-20T00:31:37.014Z,1007.14
2018-03-20T00:32:36.970Z,1007.14
2018-03-20T00:34:30.274Z,1007.11
2018-03-20T00:35:30.315Z,1007.13
2018-03-20T00:37:23.535Z,1007.15
2018-03-20T00:38:23.462Z,1007.09
2018-03-20T00:40:16.764Z,1007.14
2018-03-20T00:41:16.700Z,1007.13
2018-03-20T00:43:09.999Z,1007.15
2018-03-20T00:44:09.948Z,1007.16
2018-03-20T00:46:03.266Z,1007.15
2018-03-20T00:47:03.186Z,1007.20
2018-03-20T00:48:56.471Z,1007.17
2018-03-20T00:49:56.428Z,1007.22
2018-03-20T00:51:49.736Z,1007.23
2018-03-20T00:52:49.674Z,1007.21
2018-03-20T00:54:42.984Z,1007.28
2018-03-20T00:55:42.920Z,1007.30
2018-03-20T00:57:36.210Z,1007.34
2018-03-20T00:58:36.229Z,1007.33
2018-03-20T01:00:29.471Z,1007.37
2018-03-20T01:01:29.403Z,1007.40
2018-03-20T01:03:22.689Z,1007.40
2018-03-20T01:04:22.641Z,1007.42
2018-03-20T01:06:15.955Z,1007.38
2018-03-20T01:07:15.893Z,1007.44
2018-03-20T01:09:09.222Z,1007.41
2018-03-20T01:10:09.140Z,1007.42
2018-03-20T01:12:02.449Z,1007.40
2018-03-20T01:13:02.374Z,1007.42
2018-03-20T01:14:55.655Z,1007.39
2018-03-20T01:15:55.627Z,1007.47
2018-03-20T01:17:49.074Z,1007.42
2018-03-20T01:18:48.898Z,1007.42
2018-03-20T01:20:42.205Z,1007.45
2018-03-20T01:21:42.141Z,1007.43
2018-03-20T01:23:35.440Z,1007.42
2018-03-20T01:24:35.389Z,1007.43
2018-03-20T01:26:28.766Z,1007.43
2018-03-20T01:27:28.682Z,1007.48
2018-03-20T01:29:21.978Z,1007.50
2018-03-20T01:30:21.933Z,1007.46
2018-03-20T01:32:15.227Z,1007.43
2018-03-20T01:33:15.165Z,1007.40
2018-03-20T01:35:08.442Z,1007.40
2018-03-20T01:36:08.402Z,1007.45
2018-03-20T01:38:01.732Z,1007.42
2018-03-20T01:39:01.652Z,1007.40
2018-03-20T01:40:54.953Z,1007.41
2018-03-20T01:41:54.904Z,1007.37
2018-03-20T01:43:48.217Z,1007.42
2018-03-20T01:44:48.136Z,1007.45
2018-03-20T01:46:41.497Z,1007.44
2018-03-20T01:47:41.417Z,1007.43
2018-03-20T01:49:34.830Z,1007.42
2018-03-20T01:50:34.668Z,1007.40
2018-03-20T01:52:27.951Z,1007.40
2018-03-20T01:53:27.896Z,1007.45
2018-03-20T01:55:21.186Z,1007.44
2018-03-20T01:56:21.149Z,1007.39
2018-03-20T01:58:14.456Z,1007.45
2018-03-20T01:59:14.384Z,1007.43
2018-03-20T02:01:07.666Z,1007.45
2018-03-20T02:02:07.620Z,1007.48
2018-03-20T02:04:00.924Z,1007.49
2018-03-20T02:05:00.866Z,1007.48
2018-03-20T02:06:54.455Z,1007.43
2018-03-20T02:07:54.268Z,1007.41
2018-03-20T02:09:47.572Z,1007.34
2018-03-20T02:10:47.519Z,1007.36
2018-03-20T02:12:40.909Z,1007.33
2018-03-20T02:13:40.751Z,1007.32
2018-03-20T02:15:34.104Z,1007.32
2018-03-20T02:16:34.030Z,1007.37
2018-03-20T02:18:27.358Z,1007.32
2018-03-20T02:19:27.321Z,1007.32
2018-03-20T02:21:20.591Z,1007.34
2018-03-20T02:22:20.536Z,1007.32
2018-03-20T02:24:13.842Z,1007.38
2018-03-20T02:25:13.772Z,1007.31
2018-03-20T02:27:07.059Z,1007.27
2018-03-20T02:28:07.022Z,1007.29
2018-03-20T02:30:00.336Z,1007.33
2018-03-20T02:31:00.265Z,1007.37
2018-03-20T02:32:53.551Z,1007.38
2018-03-20T02:33:53.502Z,1007.42
2018-03-20T02:35:46.812Z,1007.45
2018-03-20T02:36:46.747Z,1007.48
2018-03-20T02:38:40.157Z,1007.44
2018-03-20T02:39:40.008Z,1007.43
2018-03-20T02:41:33.308Z,1007.40
2018-03-20T02:42:33.238Z,1007.43
2018-03-20T02:44:26.557Z,1007.46
2018-03-20T02:45:26.491Z,1007.44
2018-03-20T02:47:19.782Z,1007.52
2018-03-20T02:48:19.756Z,1007.53
2018-03-20T02:50:13.055Z,1007.45
2018-03-20T02:51:12.987Z,1007.42
2018-03-20T02:53:06.265Z,1007.41
2018-03-20T02:54:06.221Z,1007.41
2018-03-20T02:55:59.529Z,1007.43
2018-03-20T02:56:59.476Z,1007.45
2018-03-20T02:58:52.743Z,1007.50
2018-03-20T02:59:52.693Z,1007.49
2018-03-20T03:01:46.093Z,1007.48
2018-03-20T03:02:45.943Z,1007.49
2018-03-20T03:04:39.227Z,1007.50
2018-03-20T03:05:39.187Z,1007.48
2018-03-20T03:07:32.488Z,1007.50
2018-03-20T03:08:32.428Z,1007.50
2018-03-20T03:10:25.737Z,1007.52
2018-03-20T03:11:25.663Z,1007.48
2018-03-20T03:13:18.964Z,1007.53
2018-03-20T03:14:18.914Z,1007.46
2018-03-20T03:16:12.336Z,1007.47
2018-03-20T03:17:12.156Z,1007.47
2018-03-20T03:19:05.459Z,1007.46
2018-03-20T03:20:05.393Z,1007.44
2018-03-20T03:21:58.724Z,1007.38
2018-03-20T03:22:58.648Z,1007.37
2018-03-20T03:24:51.940Z,1007.36
2018-03-20T03:25:51.888Z,1007.37
2018-03-20T03:27:45.199Z,1007.31
2018-03-20T03:28:45.138Z,1007.35
2018-03-20T03:30:38.423Z,1007.47
2018-03-20T03:31:38.382Z,1007.53
2018-03-20T03:33:31.794Z,1007.56
2018-03-20T03:34:31.618Z,1007.57
2018-03-20T03:36:24.952Z,1007.55
2018-03-20T03:37:24.886Z,1007.51
2018-03-20T03:39:18.192Z,1007.52
2018-03-20T03:40:18.132Z,1007.49
2018-03-20T03:42:11.488Z,1007.51
2018-03-20T03:43:11.411Z,1007.48
2018-03-20T03:45:04.708Z,1007.46
2018-03-20T03:46:05.728Z,1007.46
2018-03-20T03:47:57.961Z,1007.39
2018-03-20T03:48:57.904Z,1007.40
2018-03-20T03:50:51.209Z,1007.26
2018-03-20T03:51:51.147Z,1007.17
2018-03-20T03:53:44.457Z,1007.14
2018-03-20T03:54:44.392Z,1007.16
2018-03-20T03:56:37.724Z,1007.22
2018-03-20T03:57:37.653Z,1007.30
2018-03-20T03:59:30.940Z,1007.42
2018-03-20T04:00:30.879Z,1007.38
2018-03-20T04:02:24.233Z,1007.45
2018-03-20T04:03:24.138Z,1007.47
2018-03-20T04:05:17.431Z,1007.56
2018-03-20T04:06:17.382Z,1007.56
2018-03-20T04:08:10.721Z,1007.50
2018-03-20T04:09:10.641Z,1007.51
2018-03-20T04:11:03.947Z,1007.50
2018-03-20T04:12:03.891Z,1007.49
2018-03-20T04:13:57.185Z,1007.50
2018-03-20T04:14:57.138Z,1007.50
2018-03-20T04:16:50.438Z,1007.44
2018-03-20T04:17:50.408Z,1007.46
2018-03-20T04:19:43.689Z,1007.45
2018-03-20T04:20:43.623Z,1007.45
2018-03-20T04:22:36.940Z,1007.42
2018-03-20T04:23:36.900Z,1007.42
2018-03-20T04:25:30.199Z,1007.44
2018-03-20T04:26:30.144Z,1007.48
2018-03-20T04:28:23.487Z,1007.46
2018-03-20T04:29:23.399Z,1007.43
2018-03-20T04:31:16.688Z,1007.46
2018-03-20T04:32:16.659Z,1007.50
2018-03-20T04:34:09.969Z,1007.51
2018-03-20T04:35:09.908Z,1007.50
2018-03-20T04:37:04.245Z,1007.47
2018-03-20T04:38:04.165Z,1007.42
2018-03-20T04:39:57.491Z,1007.47
2018-03-20T04:40:57.418Z,1007.49
2018-03-20T04:42:50.709Z,1007.48
2018-03-20T04:43:50.660Z,1007.46
2018-03-20T04:45:44.069Z,1007.43
2018-03-20T04:46:43.912Z,1007.46
2018-03-20T04:48:37.204Z,1007.48
2018-03-20T04:49:37.170Z,1007.53
2018-03-20T04:51:30.471Z,1007.59
2018-03-20T04:52:30.414Z,1007.58
2018-03-20T04:54:23.828Z,1007.55
2018-03-20T04:55:23.696Z,1007.54
2018-03-20T04:57:17.009Z,1007.52
2018-03-20T04:58:16.939Z,1007.54
2018-03-20T05:00:10.274Z,1007.56
2018-03-20T05:01:10.208Z,1007.55
2018-03-20T05:03:03.510Z,1007.52
2018-03-20T05:04:03.463Z,1007.48
2018-03-20T05:05:56.777Z,1007.47
2018-03-20T05:06:56.719Z,1007.43
2018-03-20T05:08:50.013Z,1007.45
2018-03-20T05:09:49.978Z,1007.39
2018-03-20T05:11:43.361Z,1007.37
2018-03-20T05:12:43.293Z,1007.37
2018-03-20T05:14:36.615Z,1007.42
2018-03-20T05:15:36.574Z,1007.48
2018-03-20T05:17:29.876Z,1007.50
2018-03-20T05:18:29.823Z,1007.54
2018-03-20T05:20:23.203Z,1007.56
2018-03-20T05:21:23.170Z,1007.54
2018-03-20T05:23:16.492Z,1007.48
2018-03-20T05:24:16.442Z,1007.51
2018-03-20T05:26:09.715Z,1007.53
2018-03-20T05:27:09.673Z,1007.57
2018-03-20T05:29:02.984Z,1007.60
2018-03-20T05:30:02.929Z,1007.61
2018-03-20T05:31:56.219Z,1007.61
2018-03-20T05:32:56.175Z,1007.62
2018-03-20T05:34:50.103Z,1007.68
2018-03-20T05:35:49.419Z,1007.68
2018-03-20T05:37:42.742Z,1007.72
2018-03-20T05:38:42.684Z,1007.68
2018-03-20T05:40:35.970Z,1007.73
2018-03-20T05:41:35.928Z,1007.65
2018-03-20T05:43:29.319Z,1007.66
2018-03-20T05:44:29.202Z,1007.71
2018-03-20T05:46:22.480Z,1007.63
2018-03-20T05:47:22.419Z,1007.62
2018-03-20T05:49:15.334Z,1007.53
2018-03-20T05:50:15.271Z,1007.52
2018-03-20T05:52:08.571Z,1007.58
2018-03-20T05:53:08.516Z,1007.56
2018-03-20T05:55:01.849Z,1007.57
2018-03-20T05:56:01.790Z,1007.62
2018-03-20T05:57:55.089Z,1007.60
2018-03-20T05:58:55.041Z,1007.59
2018-03-20T06:00:48.348Z,1007.61
2018-03-20T06:01:48.391Z,1007.62
2018-03-20T06:03:41.603Z,1007.65
2018-03-20T06:04:41.534Z,1007.61
2018-03-20T06:06:34.959Z,1007.63
2018-03-20T06:07:34.912Z,1007.66
2018-03-20T06:09:28.210Z,1007.61
2018-03-20T06:10:28.204Z,1007.61
2018-03-20T06:12:21.457Z,1007.64
2018-03-20T06:13:21.406Z,1007.59
2018-03-20T06:15:14.727Z,1007.63
2018-03-20T06:16:14.668Z,1007.69
2018-03-20T06:18:07.956Z,1007.66
2018-03-20T06:19:07.960Z,1007.69
2018-03-20T06:21:01.335Z,1007.73
2018-03-20T06:22:01.164Z,1007.73
2018-03-20T06:23:55.462Z,1007.73
2018-03-20T06:24:55.395Z,1007.75
2018-03-20T06:26:48.701Z,1007.76
2018-03-20T06:27:48.648Z,1007.78
2018-03-20T06:29:42.047Z,1007.82
2018-03-20T06:30:41.891Z,1007.81
2018-03-20T06:32:35.200Z,1007.79
2018-03-20T06:33:35.140Z,1007.81
2018-03-20T06:35:28.461Z,1007.77
2018-03-20T06:36:28.392Z,1007.83
2018-03-20T06:38:21.890Z,1007.89
2018-03-20T06:39:21.669Z,1007.88
2018-03-20T06:41:15.001Z,1007.96
2018-03-20T06:42:14.945Z,1007.91
2018-03-20T06:44:08.285Z,1007.97
2018-03-20T06:45:08.200Z,1008.00
2018-03-20T06:47:01.639Z,1007.98
2018-03-20T06:48:01.450Z,1008.01
2018-03-20T06:49:54.763Z,1008.03
2018-03-20T06:50:54.770Z,1008.04
2018-03-20T06:52:48.040Z,1008.09
2018-03-20T06:53:47.947Z,1008.10
2018-03-20T06:55:41.505Z,1008.09
2018-03-20T06:56:41.336Z,1008.09
2018-03-20T06:58:34.653Z,1008.10
2018-03-20T06:59:34.638Z,1008.15
2018-03-20T07:01:27.936Z,1008.21
2018-03-20T07:02:27.867Z,1008.21
2018-03-20T07:04:21.170Z,1008.25
2018-03-20T07:05:21.122Z,1008.22
2018-03-20T07:07:14.451Z,1008.24
2018-03-20T07:08:14.393Z,1008.23
2018-03-20T07:10:07.703Z,1008.33
2018-03-20T07:11:07.648Z,1008.30
2018-03-20T07:13:00.975Z,1008.31
2018-03-20T07:14:00.896Z,1008.30
2018-03-20T07:15:54.212Z,1008.33
2018-03-20T07:16:54.143Z,1008.41
2018-03-20T07:18:47.446Z,1008.41
2018-03-20T07:19:47.412Z,1008.45
2018-03-20T07:21:40.710Z,1008.42
2018-03-20T07:22:40.637Z,1008.39
2018-03-20T07:24:33.927Z,1008.45
2018-03-20T07:25:33.881Z,1008.43
2018-03-20T07:27:26.838Z,1008.49
2018-03-20T07:28:26.865Z,1008.51
2018-03-20T07:30:20.115Z,1008.51
2018-03-20T07:31:20.035Z,1008.50
2018-03-20T07:33:13.451Z,1008.52
2018-03-20T07:34:13.275Z,1008.57
2018-03-20T07:36:06.583Z,1008.61
2018-03-20T07:37:06.547Z,1008.63
2018-03-20T07:38:59.848Z,1008.63
2018-03-20T07:39:59.790Z,1008.63
2018-03-20T07:41:53.283Z,1008.66
2018-03-20T07:42:53.131Z,1008.65
2018-03-20T07:44:46.441Z,1008.61
2018-03-20T07:45:46.427Z,1008.65
2018-03-20T07:47:39.741Z,1008.64
2018-03-20T07:48:39.637Z,1008.67
2018-03-20T07:50:32.962Z,1008.70
2018-03-20T07:51:32.917Z,1008.72
2018-03-20T07:53:26.262Z,1008.72
2018-03-20T07:54:26.182Z,1008.72
2018-03-20T07:56:19.472Z,1008.73
2018-03-20T07:57:19.468Z,1008.75
2018-03-20T07:59:12.749Z,1008.82
2018-03-20T08:00:12.678Z,1008.81
2018-03-20T08:02:06.983Z,1008.90
2018-03-20T08:03:06.950Z,1008.94
2018-03-20T08:05:00.254Z,1008.89
2018-03-20T08:06:00.201Z,1008.86
2018-03-20T08:07:53.502Z,1008.86
2018-03-20T08:08:53.434Z,1008.80
2018-03-20T08:10:46.467Z,1008.79
2018-03-20T08:11:46.351Z,1008.77
2018-03-20T08:13:39.780Z,1008.76
2018-03-20T08:14:39.734Z,1008.83
2018-03-20T08:16:33.596Z,1008.75
2018-03-20T08:17:32.958Z,1008.79
2018-03-20T08:19:26.417Z,1008.83
2018-03-20T08:20:26.361Z,1008.86
2018-03-20T08:22:19.303Z,1008.85
2018-03-20T08:23:19.314Z,1008.83
2018-03-20T08:25:12.597Z,1008.85
2018-03-20T08:26:12.368Z,1008.88
2018-03-20T08:28:05.697Z,1008.87
2018-03-20T08:29:05.637Z,1008.92
2018-03-20T08:30:58.977Z,1008.95
2018-03-20T08:31:58.921Z,1008.95
2018-03-20T08:33:51.907Z,1008.96
2018-03-20T08:34:51.847Z,1008.96
2018-03-20T08:36:45.178Z,1008.95
2018-03-20T08:37:45.166Z,1008.95
2018-03-20T08:39:38.604Z,1008.94
2018-03-20T08:40:38.450Z,1008.92
2018-03-20T08:42:31.357Z,1009.03
2018-03-20T08:43:31.284Z,1009.03
2018-03-20T08:45:24.258Z,1009.05
2018-03-20T08:46:24.189Z,1009.05
2018-03-20T08:48:17.343Z,1009.05
2018-03-20T08:49:17.268Z,1009.05
2018-03-20T08:51:10.266Z,1009.06
2018-03-20T08:52:10.168Z,1009.14
2018-03-20T08:54:03.134Z,1009.25
2018-03-20T08:55:03.077Z,1009.31
2018-03-20T08:56:56.268Z,1009.35
2018-03-20T08:57:56.154Z,1009.42
2018-03-20T08:59:49.450Z,1009.53
2018-03-20T09:00:49.416Z,1009.53
2018-03-20T09:02:42.319Z,1009.61
2018-03-20T09:03:42.259Z,1009.60
2018-03-20T09:05:35.059Z,1009.70
2018-03-20T09:06:35.002Z,1009.68
2018-03-20T09:08:28.313Z,1009.68
2018-03-20T09:09:28.255Z,1009.67
2018-03-20T09:11:21.117Z,1009.74
2018-03-20T09:12:21.043Z,1009.75
2018-03-20T09:14:14.333Z,1009.76
2018-03-20T09:15:14.424Z,1009.79
2018-03-20T09:17:07.395Z,1009.77
2018-03-20T09:18:07.345Z,1009.74
2018-03-20T09:20:00.624Z,1009.78
2018-03-20T09:21:00.624Z,1009.80
2018-03-20T09:22:53.899Z,1009.79
2018-03-20T09:23:53.832Z,1009.80
2018-03-20T09:25:47.138Z,1009.77
2018-03-20T09:26:47.116Z,1009.79
2018-03-20T09:28:40.398Z,1009.89
2018-03-20T09:29:40.339Z,1009.93
2018-03-20T09:31:33.656Z,1009.98
2018-03-20T09:32:33.608Z,1009.97
2018-03-20T09:34:27.024Z,1010.03
2018-03-20T09:35:26.856Z,1010.06
2018-03-20T09:37:20.153Z,1010.07
2018-03-20T09:38:20.098Z,1010.11
2018-03-20T09:40:13.058Z,1010.01
2018-03-20T09:41:13.023Z,1010.05
2018-03-20T09:43:05.790Z,1010.13
2018-03-20T09:44:05.763Z,1010.11
2018-03-20T09:45:58.662Z,1010.22
2018-03-20T09:46:58.544Z,1010.30
2018-03-20T09:48:51.522Z,1010.22
2018-03-20T09:49:51.450Z,1010.20
2018-03-20T09:51:44.748Z,1010.26
2018-03-20T09:52:44.706Z,1010.28
2018-03-20T09:54:37.625Z,1010.33
2018-03-20T09:55:37.469Z,1010.32
2018-03-20T09:57:30.425Z,1010.23
2018-03-20T09:58:30.380Z,1010.23
2018-03-20T10:00:23.354Z,1010.34
2018-03-20T10:01:23.299Z,1010.38
2018-03-20T10:03:16.195Z,1010.37
2018-03-20T10:04:16.160Z,1010.35
2018-03-20T10:06:09.110Z,1011.79
2018-03-20T10:07:08.939Z,1011.87
2018-03-20T10:09:02.245Z,1010.49
2018-03-20T10:10:02.180Z,1010.39
2018-03-20T10:11:55.479Z,1010.43
2018-03-20T10:12:55.459Z,1012.71
2018-03-20T10:14:48.274Z,1010.44
2018-03-20T10:15:48.220Z,1010.39
2018-03-20T10:17:41.511Z,1010.77
2018-03-20T10:18:41.494Z,1012.82
2018-03-20T10:20:34.950Z,1010.47
2018-03-20T10:21:34.885Z,1010.70
2018-03-20T10:23:28.042Z,1012.37
2018-03-20T10:24:27.805Z,1012.58
2018-03-20T10:26:20.780Z,1012.76
2018-03-20T10:27:20.740Z,1012.87
2018-03-20T10:29:13.969Z,1011.33
2018-03-20T10:30:13.878Z,1012.99
2018-03-20T10:32:07.217Z,1010.76
2018-03-20T10:33:07.102Z,1010.72
2018-03-20T10:34:59.969Z,1010.74
2018-03-20T10:35:59.890Z,1013.35
2018-03-20T10:37:53.194Z,1013.33
2018-03-20T10:38:53.205Z,1013.46
2018-03-20T10:40:46.537Z,1010.65
2018-03-20T10:41:46.431Z,1013.20
2018-03-20T10:43:39.772Z,1010.88
2018-03-20T10:44:39.719Z,1010.57
2018-03-20T10:46:33.070Z,1012.49
2018-03-20T10:47:32.995Z,1013.85
2018-03-20T10:49:26.311Z,1010.78
2018-03-20T10:50:26.277Z,1010.82
2018-03-20T10:52:19.727Z,1010.98
2018-03-20T10:53:19.600Z,1010.75
2018-03-20T10:55:12.532Z,1014.48
2018-03-20T10:56:12.506Z,1014.84
2018-03-20T10:58:05.358Z,1014.90
2018-03-20T10:59:05.280Z,1012.16
2018-03-20T11:00:58.910Z,1015.54
2018-03-20T11:01:58.588Z,1010.93
2018-03-20T11:03:51.901Z,1016.26
2018-03-20T11:04:51.850Z,1016.50
2018-03-20T11:06:45.181Z,1016.57
2018-03-20T11:07:45.137Z,1016.87
2018-03-20T11:09:38.459Z,1017.13
2018-03-20T11:10:38.422Z,1017.11
2018-03-20T11:12:31.767Z,1017.14
2018-03-20T11:13:31.710Z,1017.56
2018-03-20T11:15:25.041Z,1016.28
2018-03-20T11:16:25.006Z,1016.15
2018-03-20T11:18:18.391Z,1015.66
2018-03-20T11:19:18.304Z,1016.14
2018-03-20T11:21:11.611Z,1016.22
2018-03-20T11:22:11.600Z,1016.11
2018-03-20T11:24:04.943Z,1016.73
2018-03-20T11:25:04.895Z,1016.27
2018-03-20T11:26:58.242Z,1016.16
2018-03-20T11:27:58.176Z,1016.09
2018-03-20T11:29:51.513Z,1015.96
2018-03-20T11:30:51.478Z,1015.16
2018-03-20T11:32:44.925Z,1013.75
2018-03-20T11:33:44.780Z,1012.59
2018-03-20T11:35:38.091Z,1011.88
2018-03-20T11:36:38.086Z,1011.76
2018-03-20T11:38:31.603Z,1011.73
2018-03-20T11:39:31.429Z,1011.53
2018-03-20T11:41:24.756Z,1011.43
2018-03-20T11:42:24.721Z,1011.39
2018-03-20T11:44:18.072Z,1011.50
2018-03-20T11:45:18.033Z,1011.22
2018-03-20T11:47:11.495Z,1011.41
2018-03-20T11:48:11.325Z,1011.41
2018-03-20T11:50:04.670Z,1011.45
2018-03-20T11:51:04.612Z,1011.38
2018-03-20T11:52:58.031Z,1011.44
2018-03-20T11:53:57.905Z,1011.56
2018-03-20T11:55:51.345Z,1011.14
2018-03-20T11:56:51.211Z,1011.61
2018-03-20T11:58:44.537Z,1011.58
2018-03-20T11:59:44.513Z,1011.38
2018-03-20T12:01:37.807Z,1011.52
2018-03-20T12:02:37.802Z,1011.50
2018-03-20T12:04:31.171Z,1011.48
2018-03-20T12:05:31.068Z,1011.51
2018-03-20T12:07:24.387Z,1011.55
2018-03-20T12:08:24.357Z,1011.59
2018-03-20T12:10:17.702Z,1011.55
2018-03-20T12:11:17.646Z,1011.72
2018-03-20T12:13:10.968Z,1011.50
2018-03-20T12:14:10.928Z,1011.58
2018-03-20T12:16:04.268Z,1011.56
2018-03-20T12:17:04.243Z,1011.54
2018-03-20T12:18:57.552Z,1011.44
2018-03-20T12:19:57.528Z,1011.49
2018-03-20T12:21:50.884Z,1011.55
2018-03-20T12:22:50.804Z,1011.50
2018-03-20T12:24:44.207Z,1011.44
2018-03-20T12:25:44.198Z,1011.56
2018-03-20T12:27:37.534Z,1011.65
2018-03-20T12:28:37.481Z,1011.34
2018-03-20T12:30:30.817Z,1011.37
2018-03-20T12:31:30.754Z,1011.55
2018-03-20T12:33:24.220Z,1011.46
2018-03-20T12:34:24.091Z,1011.45
2018-03-20T12:36:17.412Z,1011.51
2018-03-20T12:37:17.373Z,1011.53
2018-03-20T12:39:10.732Z,1011.47
2018-03-20T12:40:10.673Z,1011.46
2018-03-20T12:42:04.111Z,1011.57
2018-03-20T12:43:03.967Z,1011.41
2018-03-20T12:44:57.278Z,1011.57
2018-03-20T12:45:57.246Z,1011.49
2018-03-20T12:47:50.588Z,1011.54
2018-03-20T12:48:50.539Z,1011.54
2018-03-20T12:50:43.892Z,1011.46
2018-03-20T12:51:43.835Z,1011.65
2018-03-20T12:53:37.171Z,1011.66
2018-03-20T12:54:37.153Z,1011.46
2018-03-20T12:56:30.442Z,1011.64
2018-03-20T12:57:30.400Z,1011.60
2018-03-20T12:59:23.768Z,1011.65
2018-03-20T13:00:23.697Z,1011.61
2018-03-20T13:02:17.041Z,1011.58
2018-03-20T13:03:16.993Z,1011.16
2018-03-20T13:05:10.313Z,1011.71
2018-03-20T13:06:10.283Z,1011.43
2018-03-20T13:08:03.614Z,1011.76
2018-03-20T13:09:03.565Z,1011.77
2018-03-20T13:10:56.873Z,1011.66
2018-03-20T13:11:56.839Z,1011.75
2018-03-20T13:13:50.195Z,1011.74
2018-03-20T13:14:50.137Z,1011.71
2018-03-20T13:16:43.458Z,1011.64
2018-03-20T13:17:43.418Z,1011.62
2018-03-20T13:19:36.852Z,1011.56
2018-03-20T13:20:36.795Z,1011.57
2018-03-20T13:22:30.109Z,1011.64
2018-03-20T13:23:30.092Z,1011.60
2018-03-20T13:25:23.405Z,1011.65
2018-03-20T13:26:23.368Z,1011.74
2018-03-20T13:28:16.795Z,1011.69
2018-03-20T13:29:16.723Z,1011.74
2018-03-20T13:31:10.027Z,1011.70
2018-03-20T13:32:09.974Z,1011.73
2018-03-20T13:34:03.325Z,1011.71
2018-03-20T13:35:03.263Z,1011.64
2018-03-20T13:36:56.662Z,1011.88
2018-03-20T13:37:56.565Z,1011.83
2018-03-20T13:39:49.921Z,1011.79
2018-03-20T13:40:49.832Z,1011.80
2018-03-20T13:42:43.180Z,1011.80
2018-03-20T13:43:43.161Z,1011.56
2018-03-20T13:45:36.499Z,1011.95
2018-03-20T13:46:36.412Z,1011.81
2018-03-20T13:48:29.749Z,1011.68
2018-03-20T13:49:29.704Z,1011.82
2018-03-20T13:51:23.034Z,1011.94
2018-03-20T13:52:22.988Z,1011.90
2018-03-20T13:54:16.309Z,1011.86
2018-03-20T13:55:16.295Z,1011.80
2018-03-20T13:57:09.603Z,1011.85
2018-03-20T13:58:09.549Z,1011.79
2018-03-20T14:00:02.940Z,1011.77
2018-03-20T14:01:02.868Z,1011.74
2018-03-20T14:02:56.149Z,1011.76
2018-03-20T14:03:56.108Z,1011.84
2018-03-20T14:05:49.455Z,1011.74
2018-03-20T14:06:49.400Z,1011.89
2018-03-20T14:08:42.719Z,1011.83
2018-03-20T14:09:42.686Z,1011.88
2018-03-20T14:11:36.010Z,1011.85
2018-03-20T14:12:35.961Z,1011.90
2018-03-20T14:14:29.546Z,1011.98
2018-03-20T14:15:29.386Z,1011.94
2018-03-20T14:17:22.718Z,1011.87
2018-03-20T14:18:22.658Z,1012.04
2018-03-20T14:20:15.993Z,1011.98
2018-03-20T14:21:15.938Z,1012.11
2018-03-20T14:23:09.399Z,1011.98
2018-03-20T14:24:09.298Z,1012.08
2018-03-20T14:26:02.663Z,1012.15
2018-03-20T14:27:02.572Z,1012.19
2018-03-20T14:28:55.896Z,1012.17
2018-03-20T14:29:55.842Z,1012.17
2018-03-20T14:31:49.310Z,1012.20
2018-03-20T14:32:49.124Z,1012.22
2018-03-20T14:34:42.457Z,1012.20
2018-03-20T14:35:42.406Z,1012.19
2018-03-20T14:37:35.739Z,1012.24
2018-03-20T14:38:35.688Z,1012.13
2018-03-20T14:40:29.068Z,1012.26
2018-03-20T14:41:29.020Z,1012.19
2018-03-20T14:43:22.328Z,1012.20
2018-03-20T14:44:22.292Z,1012.27
2018-03-20T14:46:15.607Z,1012.19
2018-03-20T14:47:15.580Z,1012.34
2018-03-20T14:49:09.928Z,1012.20
2018-03-20T14:50:09.863Z,1012.27
2018-03-20T14:52:03.320Z,1012.33
2018-03-20T14:53:03.251Z,1012.37
2018-03-20T14:54:56.614Z,1012.39
2018-03-20T14:55:56.539Z,1012.37
2018-03-20T14:57:49.862Z,1012.53
2018-03-20T14:58:49.809Z,1012.51
2018-03-20T15:00:43.124Z,1012.36
2018-03-20T15:01:43.090Z,1012.37
2018-03-20T15:03:36.408Z,1012.50
2018-03-20T15:04:36.357Z,1012.40
2018-03-20T15:06:29.666Z,1012.30
2018-03-20T15:07:29.635Z,1012.42
2018-03-20T15:09:22.972Z,1012.41
2018-03-20T15:10:22.902Z,1012.51
2018-03-20T15:12:16.219Z,1012.51
2018-03-20T15:13:16.199Z,1012.41
2018-03-20T15:15:09.515Z,1012.68
2018-03-20T15:16:09.463Z,1012.46
2018-03-20T15:18:02.762Z,1012.63
2018-03-20T15:19:02.725Z,1012.63
2018-03-20T15:20:55.765Z,1012.69
2018-03-20T15:21:55.695Z,1012.74
2018-03-20T15:23:49.028Z,1012.69
2018-03-20T15:24:48.970Z,1012.75
2018-03-20T15:26:42.283Z,1012.73
2018-03-20T15:27:42.238Z,1012.76
2018-03-20T15:29:35.529Z,1012.67
2018-03-20T15:30:35.497Z,1012.68
2018-03-20T15:32:28.835Z,1012.76
2018-03-20T15:33:28.792Z,1012.77
2018-03-20T15:35:22.104Z,1012.78
2018-03-20T15:36:22.034Z,1012.88
2018-03-20T15:38:15.338Z,1012.90
2018-03-20T15:39:15.305Z,1012.85
2018-03-20T15:41:08.314Z,1012.95
2018-03-20T15:42:08.245Z,1013.00
2018-03-20T15:44:01.545Z,1012.97
2018-03-20T15:45:01.501Z,1012.92
2018-03-20T15:46:54.843Z,1013.00
2018-03-20T15:47:54.791Z,1013.03
2018-03-20T15:49:48.112Z,1013.07
2018-03-20T15:50:48.114Z,1012.98
2018-03-20T15:52:41.396Z,1013.10
2018-03-20T15:53:41.350Z,1013.04
2018-03-20T15:55:34.170Z,1013.06
2018-03-20T15:56:34.103Z,1013.07
2018-03-20T15:58:27.585Z,1013.01
2018-03-20T15:59:27.386Z,1013.06
2018-03-20T16:01:20.686Z,1013.06
2018-03-20T16:02:20.659Z,1013.08
2018-03-20T16:04:13.974Z,1013.07
2018-03-20T16:05:13.939Z,1013.02
2018-03-20T16:07:07.331Z,1013.23
2018-03-20T16:08:07.286Z,1013.19
2018-03-20T16:10:00.628Z,1013.25
2018-03-20T16:11:00.576Z,1013.25
2018-03-20T16:12:53.635Z,1013.26
2018-03-20T16:13:53.570Z,1013.22
2018-03-20T16:15:46.889Z,1013.25
2018-03-20T16:16:46.888Z,1013.29
2018-03-20T16:18:39.848Z,1013.38
2018-03-20T16:19:39.646Z,1013.38
2018-03-20T16:21:33.965Z,1013.41
2018-03-20T16:22:33.899Z,1013.36
2018-03-20T16:24:27.224Z,1013.45
2018-03-20T16:25:27.167Z,1013.43
2018-03-20T16:27:20.613Z,1013.49
2018-03-20T16:28:20.470Z,1013.47
2018-03-20T16:30:13.797Z,1013.47
2018-03-20T16:31:13.736Z,1013.51
2018-03-20T16:33:07.030Z,1013.51
2018-03-20T16:34:07.023Z,1013.54
2018-03-20T16:35:59.981Z,1013.62
2018-03-20T16:36:59.993Z,1013.58
2018-03-20T16:38:53.286Z,1013.61
2018-03-20T16:39:53.197Z,1013.62
2018-03-20T16:41:46.170Z,1013.68
2018-03-20T16:42:46.112Z,1013.68
2018-03-20T16:44:39.435Z,1013.71
2018-03-20T16:45:39.362Z,1013.70
2018-03-20T16:47:32.305Z,1013.75
2018-03-20T16:48:32.330Z,1013.78
2018-03-20T16:50:25.244Z,1013.90
2018-03-20T16:51:25.176Z,1013.89
2018-03-20T16:53:18.497Z,1013.91
2018-03-20T16:54:18.467Z,1013.93
2018-03-20T16:56:11.402Z,1013.97
2018-03-20T16:57:11.362Z,1013.95
2018-03-20T16:59:04.681Z,1014.07
2018-03-20T17:00:04.615Z,1014.06
2018-03-20T17:01:58.119Z,1014.00
2018-03-20T17:02:57.900Z,1014.00
2018-03-20T17:04:50.898Z,1014.00
2018-03-20T17:05:50.803Z,1014.04
2018-03-20T17:07:44.100Z,1014.03
2018-03-20T17:08:44.061Z,1014.07
2018-03-20T17:10:37.006Z,1014.09
2018-03-20T17:11:36.832Z,1014.14
2018-03-20T17:13:29.797Z,1014.12
2018-03-20T17:14:29.768Z,1014.15
2018-03-20T17:16:22.763Z,1014.16
2018-03-20T17:17:22.698Z,1014.16
2018-03-20T17:19:16.013Z,1014.21
2018-03-20T17:20:15.975Z,1014.21
2018-03-20T17:22:09.406Z,1014.23
2018-03-20T17:23:09.239Z,1014.21
2018-03-20T17:25:02.582Z,1014.29
2018-03-20T17:26:02.505Z,1014.26
2018-03-20T17:27:55.832Z,1014.31